Upstream stations:
Downstream station:
SHEF ID: QUAO2 Spring River near Quapaw, OK
STATION TYPE:
Regulating: Stage = 20.00, Flow = 33676
PRECIP STAGE STAGE(2) RIV-FLOW BAT-LOAD
in ft ft cfs volt
Ccp-Rev Ccp-Rev Ccp-Rev Ccp-Rev Ccp-Rev
(US/Central)
03/28 00:00 0.00 7.97 8.13 2542 11.99
03/28 01:00 0.00 7.97 8.12 2542 11.98
03/28 02:00 0.00 7.95 8.12 2512 11.96
03/28 03:00 0.00 7.96 8.11 2527 11.95
03/28 04:00 0.00 7.96 8.11 2527 11.89
03/28 05:00 0.00 7.93 8.10 2482 11.81
03/28 06:00 0.00 7.93 8.08 2482 11.81
03/28 07:00 0.00 7.92 8.08 2467 11.91
03/28 08:00 0.00 7.92 8.07 2467 11.79
03/28 09:00 0.00 7.90 8.06 2437 12.09
03/28 10:00 0.00 7.88 8.05 2408 12.92
03/28 11:00 0.00 7.90 8.02 2437 13.09
03/28 12:00 0.00 7.88 8.01 2408 13.09
03/28 13:00 0.00 7.87 8.00 2393 12.70
03/28 14:00 0.00 7.87 7.99 2393 12.48
03/28 15:00 0.00 7.83 7.98 2334 12.34
03/28 16:00 0.00 7.85 7.98 2364 12.40
03/28 17:00 0.00 7.84 7.95 2349 12.19
03/28 18:00 0.00 7.83 7.96 2334 12.90
03/28 19:00 0.00 7.81 7.96 2306 12.17
03/28 20:00 0.00 7.78 7.95 2263 11.87
03/28 21:00 0.00 7.79 7.96 2277 11.88
03/28 22:00 0.00 7.79 7.93 2277 11.95
03/28 23:00 0.00 7.76 7.93 2234 11.81